createdAt,value
2018-09-15T00:01:11.277Z,4.53
2018-09-15T00:03:38.804Z,4.10
2018-09-15T00:06:06.303Z,4.20
2018-09-15T00:08:33.796Z,4.70
2018-09-15T00:11:01.239Z,4.40
2018-09-15T00:13:29.004Z,4.40
2018-09-15T00:15:56.521Z,4.80
2018-09-15T00:18:24.023Z,4.60
2018-09-15T00:20:51.735Z,5.10
2018-09-15T00:23:19.194Z,4.90
2018-09-15T00:25:46.607Z,4.62
2018-09-15T00:28:14.327Z,4.87
2018-09-15T00:30:42.427Z,4.40
2018-09-15T00:33:10.192Z,4.62
2018-09-15T00:35:37.663Z,5.00
2018-09-15T00:38:05.575Z,5.05
2018-09-15T00:40:33.387Z,5.30
2018-09-15T00:43:00.920Z,4.90
2018-09-15T00:45:28.609Z,5.12
2018-09-15T00:47:56.187Z,5.40
2018-09-15T00:50:24.135Z,5.40
2018-09-15T00:52:51.669Z,5.10
2018-09-15T00:55:19.751Z,4.67
2018-09-15T00:57:47.596Z,4.97
2018-09-15T01:00:15.073Z,5.45
2018-09-15T01:02:42.863Z,5.30
2018-09-15T01:05:10.889Z,4.80
2018-09-15T01:07:38.552Z,5.28
2018-09-15T01:10:06.144Z,5.40
2018-09-15T01:12:34.160Z,5.12
2018-09-15T01:15:02.058Z,6.12
2018-09-15T01:17:29.825Z,6.15
2018-09-15T01:19:58.018Z,6.40
2018-09-15T01:22:25.488Z,6.15
2018-09-15T01:24:53.039Z,6.65
2018-09-15T01:27:20.611Z,6.03
2018-09-15T01:29:48.114Z,6.60
2018-09-15T01:32:15.591Z,6.60
2018-09-15T01:34:43.058Z,6.73
2018-09-15T01:37:10.516Z,7.83
2018-09-15T01:39:38.013Z,7.00
2018-09-15T01:42:05.439Z,7.00
2018-09-15T01:44:32.920Z,6.90
2018-09-15T01:47:00.500Z,7.55
2018-09-15T01:49:28.085Z,7.60
2018-09-15T01:51:55.691Z,7.08
2018-09-15T01:54:23.231Z,7.90
2018-09-15T01:56:51.293Z,8.53
2018-09-15T01:59:19.000Z,7.17
2018-09-15T02:01:46.544Z,7.60
2018-09-15T02:04:14.332Z,7.42
2018-09-15T02:06:42.189Z,8.08
2018-09-15T02:09:12.399Z,7.85
2018-09-15T02:11:40.136Z,7.90
2018-09-15T02:14:08.209Z,9.00
2018-09-15T02:16:35.801Z,7.70
2018-09-15T02:19:03.596Z,8.10
2018-09-15T02:21:31.383Z,7.90
2018-09-15T02:23:59.160Z,8.80
2018-09-15T02:26:26.956Z,7.83
2018-09-15T02:28:55.017Z,8.20
2018-09-15T02:31:22.535Z,8.80
2018-09-15T02:33:50.044Z,7.80
2018-09-15T02:36:17.620Z,8.70
2018-09-15T02:38:45.616Z,8.50
2018-09-15T02:41:13.344Z,8.08
2018-09-15T02:43:41.168Z,8.30
2018-09-15T02:46:09.324Z,8.73
2018-09-15T02:48:36.808Z,8.40
2018-09-15T02:51:04.267Z,8.70
2018-09-15T02:53:32.094Z,8.90
2018-09-15T02:55:59.905Z,9.05
2018-09-15T02:58:27.537Z,8.80
2018-09-15T03:00:54.988Z,8.88
2018-09-15T03:03:22.639Z,9.40
2018-09-15T03:05:50.452Z,8.10
2018-09-15T03:08:18.211Z,9.78
2018-09-15T03:10:45.763Z,10.53
2018-09-15T03:13:13.555Z,9.23
2018-09-15T03:15:41.027Z,9.90
2018-09-15T03:18:08.720Z,9.60
2018-09-15T03:20:36.241Z,10.10
2018-09-15T03:23:03.813Z,9.18
2018-09-15T03:25:31.251Z,9.75
2018-09-15T03:27:58.800Z,9.88
2018-09-15T03:30:26.242Z,9.88
2018-09-15T03:32:54.053Z,10.60
2018-09-15T03:35:22.148Z,9.98
2018-09-15T03:37:49.691Z,9.60
2018-09-15T03:40:17.523Z,10.48
2018-09-15T03:42:45.021Z,9.93
2018-09-15T03:45:12.564Z,9.53
2018-09-15T03:47:40.364Z,9.30
2018-09-15T03:50:07.911Z,9.53
2018-09-15T03:52:35.632Z,9.60
2018-09-15T03:55:03.493Z,9.60
2018-09-15T03:57:30.980Z,8.88
2018-09-15T03:59:58.779Z,8.67
2018-09-15T04:02:26.309Z,9.30
2018-09-15T04:04:53.913Z,9.45
2018-09-15T04:07:21.387Z,8.50
2018-09-15T04:09:49.160Z,8.80
2018-09-15T04:12:16.605Z,8.80
2018-09-15T04:14:44.174Z,8.70
2018-09-15T04:17:11.634Z,8.80
2018-09-15T04:19:39.662Z,8.90
2018-09-15T04:22:07.324Z,9.23
2018-09-15T04:24:34.761Z,8.80
2018-09-15T04:27:02.528Z,8.70
2018-09-15T04:29:30.006Z,8.40
2018-09-15T04:31:57.545Z,8.70
2018-09-15T04:34:25.060Z,8.58
2018-09-15T04:36:52.712Z,8.40
2018-09-15T04:39:20.192Z,8.65
2018-09-15T04:41:47.731Z,8.40
2018-09-15T04:44:15.188Z,8.48
2018-09-15T04:46:42.684Z,8.30
2018-09-15T04:49:10.161Z,8.65
2018-09-15T04:51:37.993Z,8.10
2018-09-15T04:54:05.634Z,8.50
2018-09-15T04:56:33.376Z,8.80
2018-09-15T04:59:00.901Z,8.70
2018-09-15T05:01:28.405Z,8.40
2018-09-15T05:03:55.981Z,8.55
2018-09-15T05:06:23.485Z,8.40
2018-09-15T05:08:51.016Z,8.53
2018-09-15T05:11:18.535Z,8.58
2018-09-15T05:13:46.061Z,8.80
2018-09-15T05:16:13.833Z,8.90
2018-09-15T05:18:41.356Z,8.40
2018-09-15T05:21:08.922Z,8.90
2018-09-15T05:23:36.639Z,8.90
2018-09-15T05:26:04.193Z,9.43
2018-09-15T05:28:31.954Z,8.90
2018-09-15T05:30:59.769Z,8.48
2018-09-15T05:33:27.256Z,9.10
2018-09-15T05:35:55.100Z,8.83
2018-09-15T05:38:22.607Z,8.50
2018-09-15T05:40:50.149Z,8.98
2018-09-15T05:43:17.777Z,9.38
2018-09-15T05:45:45.542Z,9.28
2018-09-15T05:48:13.089Z,9.50
2018-09-15T05:50:40.517Z,8.95
2018-09-15T05:53:08.220Z,9.20
2018-09-15T05:55:36.094Z,8.48
2018-09-15T05:58:03.579Z,8.90
2018-09-15T06:00:31.377Z,8.50
2018-09-15T06:02:59.792Z,8.15
2018-09-15T06:05:27.489Z,7.95
2018-09-15T06:07:55.319Z,7.87
2018-09-15T06:10:23.124Z,8.15
2018-09-15T06:12:51.165Z,7.58
2018-09-15T06:15:18.672Z,7.35
2018-09-15T06:17:46.508Z,7.83
2018-09-15T06:20:13.957Z,7.10
2018-09-15T06:22:41.400Z,7.87
2018-09-15T06:25:08.942Z,7.08
2018-09-15T06:27:36.459Z,7.30
2018-09-15T06:30:04.313Z,7.00
2018-09-15T06:32:31.785Z,7.00
2018-09-15T06:34:59.440Z,7.05
2018-09-15T06:37:26.944Z,7.40
2018-09-15T06:39:54.443Z,6.97
2018-09-15T06:42:22.009Z,7.12
2018-09-15T06:44:49.768Z,7.50
2018-09-15T06:47:17.243Z,8.85
2018-09-15T06:49:45.083Z,7.30
2018-09-15T06:52:12.548Z,6.75
2018-09-15T06:54:40.298Z,6.83
2018-09-15T06:57:07.784Z,6.90
2018-09-15T06:59:35.522Z,6.40
2018-09-15T07:02:03.392Z,6.17
2018-09-15T07:04:30.831Z,6.40
2018-09-15T07:06:58.635Z,6.47
2018-09-15T07:09:26.233Z,6.25
2018-09-15T07:11:53.741Z,5.80
2018-09-15T07:14:21.234Z,5.62
2018-09-15T07:16:49.148Z,5.70
2018-09-15T07:19:16.663Z,5.90
2018-09-15T07:21:44.586Z,5.92
2018-09-15T07:24:12.122Z,5.70
2018-09-15T07:26:40.045Z,5.55
2018-09-15T07:29:07.580Z,5.58
2018-09-15T07:31:35.630Z,6.25
2018-09-15T07:34:03.052Z,7.05
2018-09-15T07:36:30.885Z,5.50
2018-09-15T07:38:58.431Z,5.62
2018-09-15T07:41:26.265Z,5.80
2018-09-15T07:43:53.726Z,5.50
2018-09-15T07:46:21.401Z,5.30
2018-09-15T07:48:49.479Z,4.97
2018-09-15T07:51:16.895Z,5.12
2018-09-15T07:53:44.372Z,5.10
2018-09-15T07:56:11.803Z,5.20
2018-09-15T07:58:39.468Z,5.17
2018-09-15T08:01:07.097Z,5.10
2018-09-15T08:03:34.620Z,4.85
2018-09-15T08:06:02.076Z,4.45
2018-09-15T08:08:29.592Z,5.20
2018-09-15T08:10:57.207Z,4.50
2018-09-15T08:13:24.719Z,4.80
2018-09-15T08:15:52.499Z,4.40
2018-09-15T08:18:21.283Z,4.13
2018-09-15T08:20:49.152Z,4.30
2018-09-15T08:23:16.740Z,4.00
2018-09-15T08:25:44.413Z,4.50
2018-09-15T08:28:12.580Z,3.92
2018-09-15T08:30:40.327Z,4.00
2018-09-15T08:33:08.057Z,4.20
2018-09-15T08:35:36.241Z,3.80
2018-09-15T08:38:04.350Z,3.80
2018-09-15T08:40:31.759Z,3.40
2018-09-15T08:42:59.909Z,3.27
2018-09-15T08:45:27.865Z,4.30
2018-09-15T08:47:55.789Z,3.25
2018-09-15T08:50:23.338Z,2.83
2018-09-15T08:52:51.563Z,2.80
2018-09-15T08:55:19.412Z,2.52
2018-09-15T08:57:47.057Z,3.10
2018-09-15T09:00:15.041Z,2.75
2018-09-15T09:02:43.492Z,2.62
2018-09-15T09:05:11.050Z,2.98
2018-09-15T09:07:38.775Z,2.12
2018-09-15T09:10:06.296Z,2.27
2018-09-15T09:12:33.861Z,2.20
2018-09-15T09:15:01.930Z,2.40
2018-09-15T09:17:29.583Z,2.20
2018-09-15T09:19:57.626Z,3.02
2018-09-15T09:22:25.301Z,2.30
2018-09-15T09:24:52.867Z,1.90
2018-09-15T09:27:20.355Z,1.95
2018-09-15T09:29:48.527Z,1.70
2018-09-15T09:32:16.298Z,2.00
2018-09-15T09:34:44.020Z,8.98
2018-09-15T09:37:12.233Z,2.20
2018-09-15T09:39:40.139Z,1.50
2018-09-15T09:42:08.439Z,1.50
2018-09-15T09:44:35.923Z,1.70
2018-09-15T09:47:03.825Z,1.80
2018-09-15T09:49:31.759Z,1.80
2018-09-15T09:51:59.333Z,2.00
2018-09-15T09:54:27.264Z,1.70
2018-09-15T09:56:55.041Z,1.70
2018-09-15T09:59:22.720Z,1.87
2018-09-15T10:01:55.316Z,1.62
2018-09-15T10:04:23.401Z,1.60
2018-09-15T10:06:52.738Z,2.00
2018-09-15T10:09:20.988Z,2.02
2018-09-15T10:11:48.673Z,1.95
2018-09-15T10:14:16.467Z,1.52
2018-09-15T10:16:44.003Z,2.05
2018-09-15T10:19:11.805Z,1.50
2018-09-15T10:21:39.512Z,1.70
2018-09-15T10:24:07.373Z,1.80
2018-09-15T10:26:35.856Z,1.90
2018-09-15T10:29:03.728Z,2.08
2018-09-15T10:31:31.175Z,2.33
2018-09-15T10:33:59.365Z,2.83
2018-09-15T10:36:26.825Z,1.60
2018-09-15T10:38:54.467Z,1.80
2018-09-15T10:41:21.952Z,3.00
2018-09-15T10:43:49.429Z,3.70
2018-09-15T10:46:17.570Z,2.30
2018-09-15T10:48:45.026Z,2.20
2018-09-15T10:51:12.493Z,1.80
2018-09-15T10:53:40.596Z,1.70
2018-09-15T10:56:08.547Z,1.60
2018-09-15T10:58:36.491Z,2.70
2018-09-15T11:01:04.107Z,6.33
2018-09-15T11:03:31.685Z,10.40
2018-09-15T11:05:59.825Z,7.20
2018-09-15T11:08:27.975Z,6.17
2018-09-15T11:10:55.659Z,5.70
2018-09-15T11:13:23.717Z,5.30
2018-09-15T11:15:53.452Z,4.15
2018-09-15T11:18:21.376Z,3.75
2018-09-15T11:20:49.023Z,3.47
2018-09-15T11:23:16.636Z,3.08
2018-09-15T11:25:44.368Z,2.50
2018-09-15T11:28:11.960Z,2.62
2018-09-15T11:30:40.212Z,2.00
2018-09-15T11:33:07.921Z,1.70
2018-09-15T11:35:35.920Z,1.60
2018-09-15T11:38:03.611Z,1.80
2018-09-15T11:40:31.832Z,1.45
2018-09-15T11:43:00.184Z,2.10
2018-09-15T11:45:29.077Z,1.90
2018-09-15T11:47:56.673Z,1.72
2018-09-15T11:50:24.236Z,1.67
2018-09-15T11:52:52.738Z,1.80
2018-09-15T11:55:20.630Z,1.90
2018-09-15T11:57:48.791Z,2.30
2018-09-15T12:00:20.441Z,3.00
2018-09-15T12:02:49.236Z,2.10
2018-09-15T12:05:16.912Z,2.50
2018-09-15T12:07:44.798Z,2.20
2018-09-15T12:10:12.633Z,3.70
2018-09-15T12:12:40.401Z,1.62
2018-09-15T12:15:07.924Z,1.70
2018-09-15T12:17:35.620Z,1.77
2018-09-15T12:20:03.329Z,1.72
2018-09-15T12:22:30.812Z,2.00
2018-09-15T12:24:58.712Z,2.57
2018-09-15T12:27:26.477Z,2.45
2018-09-15T12:29:54.522Z,2.00
2018-09-15T12:32:22.629Z,1.90
2018-09-15T12:34:50.096Z,2.30
2018-09-15T12:37:18.016Z,1.60
2018-09-15T12:39:45.736Z,2.20
2018-09-15T12:42:13.480Z,2.20
2018-09-15T12:44:41.614Z,2.20
2018-09-15T12:47:09.450Z,2.00
2018-09-15T12:49:37.181Z,1.40
2018-09-15T12:52:05.196Z,1.80
2018-09-15T12:54:32.805Z,1.25
2018-09-15T12:57:00.987Z,1.80
2018-09-15T12:59:29.266Z,1.62
2018-09-15T13:01:57.488Z,1.60
2018-09-15T13:04:25.052Z,1.42
2018-09-15T13:06:53.108Z,1.32
2018-09-15T13:09:21.143Z,1.85
2018-09-15T13:11:49.240Z,1.92
2018-09-15T13:14:16.720Z,1.75
2018-09-15T13:16:44.922Z,1.30
2018-09-15T13:19:12.365Z,1.65
2018-09-15T13:21:40.364Z,2.20
2018-09-15T13:24:08.081Z,1.40
2018-09-15T13:26:35.656Z,1.70
2018-09-15T13:29:03.422Z,1.10
2018-09-15T13:31:31.209Z,1.20
2018-09-15T13:33:58.736Z,1.20
2018-09-15T13:36:26.242Z,1.20
2018-09-15T13:38:53.720Z,1.50
2018-09-15T13:41:21.442Z,2.58
2018-09-15T13:43:48.924Z,1.60
2018-09-15T13:46:16.693Z,1.50
2018-09-15T13:48:44.156Z,1.77
2018-09-15T13:51:12.020Z,1.10
2018-09-15T13:53:39.821Z,1.60
2018-09-15T13:56:07.309Z,1.40
2018-09-15T13:58:35.517Z,1.80
2018-09-15T14:01:03.491Z,1.80
2018-09-15T14:03:30.953Z,2.45
2018-09-15T14:05:58.708Z,1.30
2018-09-15T14:08:26.232Z,1.50
2018-09-15T14:10:53.704Z,2.13
2018-09-15T14:13:21.188Z,2.77
2018-09-15T14:15:49.052Z,2.83
2018-09-15T14:18:16.517Z,1.80
2018-09-15T14:20:44.277Z,1.85
2018-09-15T14:23:11.969Z,3.02
2018-09-15T14:25:39.466Z,2.20
2018-09-15T14:28:07.591Z,1.90
2018-09-15T14:30:35.642Z,2.00
2018-09-15T14:33:03.137Z,1.80
2018-09-15T14:35:31.175Z,1.40
2018-09-15T14:37:58.673Z,1.50
2018-09-15T14:40:26.385Z,1.60
2018-09-15T14:42:54.215Z,1.30
2018-09-15T14:45:21.749Z,1.43
2018-09-15T14:47:49.177Z,1.20
2018-09-15T14:50:16.967Z,1.40
2018-09-15T14:52:45.014Z,1.30
2018-09-15T14:55:12.795Z,1.20
2018-09-15T14:57:40.327Z,1.30
2018-09-15T15:00:08.359Z,1.62
2018-09-15T15:02:35.907Z,2.60
2018-09-15T15:05:03.452Z,2.30
2018-09-15T15:07:31.010Z,2.52
2018-09-15T15:09:58.852Z,2.10
2018-09-15T15:12:27.029Z,1.62
2018-09-15T15:14:55.211Z,1.30
2018-09-15T15:17:23.101Z,1.52
2018-09-15T15:19:50.597Z,1.70
2018-09-15T15:22:18.245Z,1.80
2018-09-15T15:24:46.844Z,2.00
2018-09-15T15:27:14.683Z,2.50
2018-09-15T15:29:42.265Z,2.70
2018-09-15T15:32:10.069Z,1.87
2018-09-15T15:34:37.898Z,1.80
2018-09-15T15:37:05.587Z,1.50
2018-09-15T15:39:33.365Z,2.70
2018-09-15T15:42:00.963Z,4.40
2018-09-15T15:44:28.789Z,4.10
2018-09-15T15:46:56.302Z,2.17
2018-09-15T15:49:23.801Z,2.20
2018-09-15T15:51:51.540Z,2.37
2018-09-15T15:54:20.152Z,1.70
2018-09-15T15:56:47.890Z,1.75
2018-09-15T15:59:16.415Z,1.90
2018-09-15T16:01:44.525Z,1.70
2018-09-15T16:04:12.112Z,1.35
2018-09-15T16:06:40.207Z,2.00
2018-09-15T16:09:08.172Z,1.72
2018-09-15T16:11:36.203Z,2.20
2018-09-15T16:14:04.324Z,1.55
2018-09-15T16:16:31.844Z,1.70
2018-09-15T16:18:59.755Z,3.12
2018-09-15T16:21:27.544Z,4.25
2018-09-15T16:23:55.103Z,2.10
2018-09-15T16:26:23.012Z,2.72
2018-09-15T16:28:50.519Z,2.92
2018-09-15T16:31:18.043Z,1.75
2018-09-15T16:33:46.440Z,2.10
2018-09-15T16:36:13.968Z,3.80
2018-09-15T16:38:41.769Z,2.50
2018-09-15T16:41:09.579Z,3.10
2018-09-15T16:43:37.420Z,2.30
2018-09-15T16:46:04.905Z,2.30
2018-09-15T16:48:32.420Z,2.10
2018-09-15T16:51:00.512Z,1.98
2018-09-15T16:53:28.004Z,1.70
2018-09-15T16:55:55.727Z,1.70
2018-09-15T16:58:23.313Z,2.43
2018-09-15T17:00:51.540Z,2.25
2018-09-15T17:03:19.102Z,1.80
2018-09-15T17:05:46.690Z,2.40
2018-09-15T17:08:14.412Z,1.70
2018-09-15T17:10:42.425Z,1.80
2018-09-15T17:13:10.487Z,1.47
2018-09-15T17:15:38.309Z,2.87
2018-09-15T17:18:06.945Z,1.85
2018-09-15T17:20:35.308Z,1.52
2018-09-15T17:23:02.860Z,1.90
2018-09-15T17:25:30.864Z,1.60
2018-09-15T17:27:58.276Z,1.60
2018-09-15T17:30:26.448Z,1.90
2018-09-15T17:32:54.095Z,1.60
2018-09-15T17:35:21.773Z,1.67
2018-09-15T17:37:49.420Z,1.85
2018-09-15T17:40:17.284Z,2.15
2018-09-15T17:42:45.295Z,2.60
2018-09-15T17:45:13.684Z,2.42
2018-09-15T17:47:41.748Z,5.50
2018-09-15T17:50:09.271Z,3.60
2018-09-15T17:52:36.802Z,2.90
2018-09-15T17:55:04.752Z,2.00
2018-09-15T17:57:33.079Z,1.67
2018-09-15T18:00:02.105Z,1.70
2018-09-15T18:02:29.828Z,1.52
2018-09-15T18:04:57.667Z,1.60
2018-09-15T18:07:25.816Z,1.80
2018-09-15T18:09:53.901Z,1.67
2018-09-15T18:12:21.472Z,1.47
2018-09-15T18:14:50.101Z,1.60
2018-09-15T18:17:18.223Z,1.37
2018-09-15T18:19:46.121Z,2.30
2018-09-15T18:22:13.978Z,2.15
2018-09-15T18:24:41.484Z,1.70
2018-09-15T18:27:08.948Z,2.10
2018-09-15T18:29:36.712Z,2.30
2018-09-15T18:32:04.888Z,4.15
2018-09-15T18:34:32.681Z,4.17
2018-09-15T18:37:00.922Z,4.33
2018-09-15T18:39:28.661Z,2.77
2018-09-15T18:41:56.465Z,3.60
2018-09-15T18:44:23.931Z,2.60
2018-09-15T18:46:51.418Z,2.50
2018-09-15T18:49:19.249Z,2.50
2018-09-15T18:51:47.013Z,2.60
2018-09-15T18:54:14.584Z,2.27
2018-09-15T18:56:42.361Z,5.10
2018-09-15T18:59:10.155Z,5.45
2018-09-15T19:01:37.969Z,4.10
2018-09-15T19:04:05.862Z,2.33
2018-09-15T19:06:33.912Z,3.55
2018-09-15T19:09:01.975Z,1.90
2018-09-15T19:11:29.745Z,2.90
2018-09-15T19:13:57.201Z,2.30
2018-09-15T19:16:24.684Z,2.50
2018-09-15T19:18:52.427Z,2.50
2018-09-15T19:21:19.991Z,2.20
2018-09-15T19:23:48.058Z,1.95
2018-09-15T19:26:15.536Z,2.10
2018-09-15T19:28:43.486Z,2.33
2018-09-15T19:31:10.943Z,2.80
2018-09-15T19:33:38.741Z,2.60
2018-09-15T19:36:06.704Z,2.20
2018-09-15T19:38:34.724Z,2.30
2018-09-15T19:41:02.416Z,2.83
2018-09-15T19:43:29.867Z,2.80
2018-09-15T19:45:57.375Z,2.52
2018-09-15T19:48:24.851Z,2.30
2018-09-15T19:50:52.356Z,2.22
2018-09-15T19:53:20.140Z,2.10
2018-09-15T19:55:47.633Z,2.10
2018-09-15T19:58:15.361Z,2.05
2018-09-15T20:00:43.092Z,2.00
2018-09-15T20:03:10.578Z,3.95
2018-09-15T20:05:38.016Z,2.30
2018-09-15T20:08:06.185Z,2.52
2018-09-15T20:10:33.604Z,2.00
2018-09-15T20:13:01.307Z,2.30
2018-09-15T20:15:29.264Z,2.77
2018-09-15T20:19:12.816Z,2.20
2018-09-15T20:21:39.627Z,2.10
2018-09-15T20:24:07.770Z,2.37
2018-09-15T20:26:35.427Z,2.10
2018-09-15T20:29:03.256Z,3.42
2018-09-15T20:31:31.033Z,3.80
2018-09-15T20:33:58.834Z,2.77
2018-09-15T20:36:26.665Z,3.67
2018-09-15T20:38:54.113Z,2.30
2018-09-15T20:41:21.881Z,2.00
2018-09-15T20:43:49.437Z,2.00
2018-09-15T20:46:17.197Z,2.30
2018-09-15T20:48:44.972Z,2.72
2018-09-15T20:51:12.784Z,2.12
2018-09-15T20:53:40.927Z,2.05
2018-09-15T20:56:08.708Z,2.60
2018-09-15T20:58:36.471Z,2.92
2018-09-15T21:01:04.205Z,2.40
2018-09-15T21:03:32.958Z,1.90
2018-09-15T21:06:00.892Z,2.10
2018-09-15T21:08:28.640Z,2.95
2018-09-15T21:10:56.416Z,3.50
2018-09-15T21:13:24.761Z,2.52
2018-09-15T21:15:52.424Z,2.30
2018-09-15T21:18:20.092Z,8.75
2018-09-15T21:20:48.509Z,5.35
2018-09-15T21:23:16.102Z,2.00
2018-09-15T21:25:43.616Z,3.10
2018-09-15T21:28:11.373Z,2.42
2018-09-15T21:30:38.907Z,2.40
2018-09-15T21:33:06.921Z,2.20
2018-09-15T21:35:34.860Z,2.50
2018-09-15T21:38:03.555Z,2.00
2018-09-15T21:40:31.661Z,4.60
2018-09-15T21:42:59.980Z,7.10
2018-09-15T21:45:27.772Z,2.15
2018-09-15T21:47:55.427Z,2.30
2018-09-15T21:50:24.136Z,2.10
2018-09-15T21:52:51.724Z,3.62
2018-09-15T21:55:19.228Z,1.90
2018-09-15T21:57:46.984Z,2.10
2018-09-15T22:00:14.653Z,2.58
2018-09-15T22:02:42.179Z,4.13
2018-09-15T22:05:09.648Z,3.60
2018-09-15T22:07:38.022Z,3.45
2018-09-15T22:10:05.530Z,2.60
2018-09-15T22:12:33.299Z,2.30
2018-09-15T22:15:01.035Z,2.40
2018-09-15T22:17:28.805Z,2.57
2018-09-15T22:19:56.339Z,6.45
2018-09-15T22:22:24.030Z,2.67
2018-09-15T22:24:51.687Z,20.43
2018-09-15T22:27:21.056Z,3.50
2018-09-15T22:29:49.121Z,6.45
2018-09-15T22:32:19.968Z,8.63
2018-09-15T22:34:49.349Z,2.80
2018-09-15T22:37:16.837Z,2.75
2018-09-15T22:39:44.263Z,3.02
2018-09-15T22:42:12.050Z,2.70
2018-09-15T22:44:39.483Z,2.77
2018-09-15T22:47:07.104Z,3.10
2018-09-15T22:49:34.752Z,3.10
2018-09-15T22:52:02.345Z,2.80
2018-09-15T22:54:29.879Z,4.97
2018-09-15T22:56:57.356Z,3.00
2018-09-15T22:59:24.903Z,2.20
2018-09-15T23:01:52.441Z,2.30
2018-09-15T23:04:20.103Z,2.30
2018-09-15T23:06:47.924Z,2.37
2018-09-15T23:09:15.572Z,3.15
2018-09-15T23:11:43.144Z,4.15
2018-09-15T23:14:10.895Z,4.92
2018-09-15T23:16:38.526Z,3.50
2018-09-15T23:19:06.090Z,3.10
2018-09-15T23:21:33.544Z,3.00
2018-09-15T23:24:01.285Z,3.45
2018-09-15T23:26:28.794Z,3.00
2018-09-15T23:28:56.648Z,4.33
2018-09-15T23:31:24.500Z,8.73
2018-09-15T23:33:51.985Z,4.10
2018-09-15T23:36:19.501Z,3.33
2018-09-15T23:38:47.240Z,4.00
2018-09-15T23:41:14.787Z,3.98
2018-09-15T23:43:42.259Z,5.40
2018-09-15T23:46:10.414Z,3.90
2018-09-15T23:48:38.028Z,3.60
2018-09-15T23:51:05.635Z,4.30
2018-09-15T23:53:33.079Z,4.20
2018-09-15T23:56:00.628Z,4.47
2018-09-15T23:58:28.267Z,3.85
